sensor_id;sensor_type;location;lat;lon;timestamp;P1;durP1;ratioP1;P2;durP2;ratioP2
60726;SDS011;46577;49.004;12.120;2022-12-17T00:01:47;46.37;;;21.50;;
60726;SDS011;46577;49.004;12.120;2022-12-17T00:04:31;39.37;;;17.90;;
60726;SDS011;46577;49.004;12.120;2022-12-17T00:07:15;42.97;;;18.60;;
60726;SDS011;46577;49.004;12.120;2022-12-17T00:09:59;44.50;;;19.33;;
60726;SDS011;46577;49.004;12.120;2022-12-17T00:12:45;43.33;;;18.83;;
60726;SDS011;46577;49.004;12.120;2022-12-17T00:15:29;48.27;;;17.63;;
60726;SDS011;46577;49.004;12.120;2022-12-17T00:18:13;43.77;;;18.80;;
60726;SDS011;46577;49.004;12.120;2022-12-17T00:20:58;49.50;;;19.17;;
60726;SDS011;46577;49.004;12.120;2022-12-17T00:23:44;49.87;;;19.43;;
60726;SDS011;46577;49.004;12.120;2022-12-17T00:26:28;40.83;;;20.20;;
60726;SDS011;46577;49.004;12.120;2022-12-17T00:29:13;44.80;;;19.70;;
60726;SDS011;46577;49.004;12.120;2022-12-17T00:31:57;46.57;;;19.90;;
60726;SDS011;46577;49.004;12.120;2022-12-17T00:34:42;56.47;;;20.83;;
60726;SDS011;46577;49.004;12.120;2022-12-17T00:37:26;44.30;;;19.13;;
60726;SDS011;46577;49.004;12.120;2022-12-17T00:40:10;49.47;;;20.67;;
60726;SDS011;46577;49.004;12.120;2022-12-17T00:42:58;50.17;;;18.90;;
60726;SDS011;46577;49.004;12.120;2022-12-17T00:45:43;48.43;;;18.80;;
60726;SDS011;46577;49.004;12.120;2022-12-17T00:48:27;41.77;;;17.97;;
60726;SDS011;46577;49.004;12.120;2022-12-17T00:51:11;49.30;;;19.17;;
60726;SDS011;46577;49.004;12.120;2022-12-17T00:53:55;54.83;;;20.57;;
60726;SDS011;46577;49.004;12.120;2022-12-17T00:56:39;48.83;;;19.00;;
60726;SDS011;46577;49.004;12.120;2022-12-17T00:59:24;50.77;;;18.97;;
60726;SDS011;46577;49.004;12.120;2022-12-17T01:02:08;51.47;;;18.47;;
60726;SDS011;46577;49.004;12.120;2022-12-17T01:04:52;51.70;;;20.43;;
60726;SDS011;46577;49.004;12.120;2022-12-17T01:07:36;45.87;;;18.37;;
60726;SDS011;46577;49.004;12.120;2022-12-17T01:10:20;42.93;;;16.60;;
60726;SDS011;46577;49.004;12.120;2022-12-17T01:13:04;47.80;;;19.60;;
60726;SDS011;46577;49.004;12.120;2022-12-17T01:15:48;48.37;;;17.77;;
60726;SDS011;46577;49.004;12.120;2022-12-17T01:18:32;43.27;;;15.90;;
60726;SDS011;46577;49.004;12.120;2022-12-17T01:21:16;42.77;;;17.87;;
60726;SDS011;46577;49.004;12.120;2022-12-17T01:24:00;52.67;;;20.43;;
60726;SDS011;46577;49.004;12.120;2022-12-17T01:26:44;50.20;;;18.50;;
60726;SDS011;46577;49.004;12.120;2022-12-17T01:29:40;41.13;;;17.77;;
60726;SDS011;46577;49.004;12.120;2022-12-17T01:32:24;55.80;;;17.80;;
60726;SDS011;46577;49.004;12.120;2022-12-17T01:35:08;61.57;;;19.10;;
60726;SDS011;46577;49.004;12.120;2022-12-17T01:37:52;48.30;;;21.20;;
60726;SDS011;46577;49.004;12.120;2022-12-17T01:40:36;44.43;;;20.00;;
60726;SDS011;46577;49.004;12.120;2022-12-17T01:43:30;42.43;;;17.20;;
60726;SDS011;46577;49.004;12.120;2022-12-17T01:46:16;50.97;;;20.00;;
60726;SDS011;46577;49.004;12.120;2022-12-17T01:49:01;47.40;;;19.03;;
60726;SDS011;46577;49.004;12.120;2022-12-17T01:51:46;40.03;;;18.30;;
60726;SDS011;46577;49.004;12.120;2022-12-17T01:54:31;44.77;;;20.40;;
60726;SDS011;46577;49.004;12.120;2022-12-17T01:57:15;45.07;;;19.83;;
60726;SDS011;46577;49.004;12.120;2022-12-17T02:00:01;46.63;;;18.57;;
60726;SDS011;46577;49.004;12.120;2022-12-17T02:02:47;44.80;;;18.20;;
60726;SDS011;46577;49.004;12.120;2022-12-17T02:05:33;47.40;;;17.57;;
60726;SDS011;46577;49.004;12.120;2022-12-17T02:08:31;44.07;;;19.47;;
60726;SDS011;46577;49.004;12.120;2022-12-17T02:11:39;39.67;;;16.50;;
60726;SDS011;46577;49.004;12.120;2022-12-17T02:17:29;52.27;;;20.13;;
60726;SDS011;46577;49.004;12.120;2022-12-17T02:20:22;45.00;;;18.70;;
60726;SDS011;46577;49.004;12.120;2022-12-17T02:26:17;45.30;;;19.57;;
60726;SDS011;46577;49.004;12.120;2022-12-17T02:29:21;52.97;;;19.70;;
60726;SDS011;46577;49.004;12.120;2022-12-17T02:32:08;48.77;;;20.20;;
60726;SDS011;46577;49.004;12.120;2022-12-17T02:34:54;44.73;;;17.57;;
60726;SDS011;46577;49.004;12.120;2022-12-17T02:37:45;47.93;;;17.10;;
60726;SDS011;46577;49.004;12.120;2022-12-17T02:40:30;47.27;;;17.53;;
60726;SDS011;46577;49.004;12.120;2022-12-17T02:43:16;46.60;;;19.80;;
60726;SDS011;46577;49.004;12.120;2022-12-17T02:46:02;50.23;;;17.23;;
60726;SDS011;46577;49.004;12.120;2022-12-17T02:48:48;52.60;;;17.33;;
60726;SDS011;46577;49.004;12.120;2022-12-17T02:51:32;47.03;;;18.20;;
60726;SDS011;46577;49.004;12.120;2022-12-17T02:54:16;45.83;;;18.93;;
60726;SDS011;46577;49.004;12.120;2022-12-17T02:57:00;44.13;;;18.80;;
60726;SDS011;46577;49.004;12.120;2022-12-17T02:59:44;47.80;;;18.70;;
60726;SDS011;46577;49.004;12.120;2022-12-17T03:02:28;49.27;;;17.70;;
60726;SDS011;46577;49.004;12.120;2022-12-17T03:05:12;47.33;;;18.40;;
60726;SDS011;46577;49.004;12.120;2022-12-17T03:07:56;49.53;;;18.07;;
60726;SDS011;46577;49.004;12.120;2022-12-17T03:10:40;43.57;;;17.77;;
60726;SDS011;46577;49.004;12.120;2022-12-17T03:13:25;46.20;;;19.57;;
60726;SDS011;46577;49.004;12.120;2022-12-17T03:16:12;45.37;;;17.50;;
60726;SDS011;46577;49.004;12.120;2022-12-17T03:18:59;43.33;;;17.30;;
60726;SDS011;46577;49.004;12.120;2022-12-17T03:21:44;35.00;;;16.33;;
60726;SDS011;46577;49.004;12.120;2022-12-17T03:24:28;43.93;;;18.40;;
60726;SDS011;46577;49.004;12.120;2022-12-17T03:27:13;40.13;;;18.70;;
60726;SDS011;46577;49.004;12.120;2022-12-17T03:29:57;38.97;;;15.87;;
60726;SDS011;46577;49.004;12.120;2022-12-17T03:32:41;32.87;;;14.63;;
60726;SDS011;46577;49.004;12.120;2022-12-17T03:35:25;38.47;;;16.10;;
60726;SDS011;46577;49.004;12.120;2022-12-17T03:38:09;40.20;;;18.17;;
60726;SDS011;46577;49.004;12.120;2022-12-17T03:40:54;40.03;;;16.87;;
60726;SDS011;46577;49.004;12.120;2022-12-17T03:43:39;48.53;;;17.67;;
60726;SDS011;46577;49.004;12.120;2022-12-17T03:46:23;45.27;;;16.50;;
60726;SDS011;46577;49.004;12.120;2022-12-17T03:49:07;39.50;;;16.27;;
60726;SDS011;46577;49.004;12.120;2022-12-17T03:51:51;45.40;;;17.20;;
60726;SDS011;46577;49.004;12.120;2022-12-17T03:54:35;38.63;;;16.60;;
60726;SDS011;46577;49.004;12.120;2022-12-17T03:57:19;42.73;;;16.53;;
60726;SDS011;46577;49.004;12.120;2022-12-17T04:00:04;37.67;;;16.33;;
60726;SDS011;46577;49.004;12.120;2022-12-17T04:02:49;52.23;;;17.23;;
60726;SDS011;46577;49.004;12.120;2022-12-17T04:05:33;43.27;;;16.40;;
60726;SDS011;46577;49.004;12.120;2022-12-17T04:08:17;38.00;;;15.37;;
60726;SDS011;46577;49.004;12.120;2022-12-17T04:11:01;39.97;;;15.27;;
60726;SDS011;46577;49.004;12.120;2022-12-17T04:13:45;38.27;;;14.60;;
60726;SDS011;46577;49.004;12.120;2022-12-17T04:16:29;48.77;;;17.10;;
60726;SDS011;46577;49.004;12.120;2022-12-17T04:19:14;37.00;;;16.10;;
60726;SDS011;46577;49.004;12.120;2022-12-17T04:21:58;42.60;;;16.60;;
60726;SDS011;46577;49.004;12.120;2022-12-17T04:24:42;44.40;;;16.77;;
60726;SDS011;46577;49.004;12.120;2022-12-17T04:27:26;40.20;;;16.20;;
60726;SDS011;46577;49.004;12.120;2022-12-17T04:30:10;50.33;;;16.43;;
60726;SDS011;46577;49.004;12.120;2022-12-17T04:32:54;42.27;;;16.60;;
60726;SDS011;46577;49.004;12.120;2022-12-17T04:35:38;41.23;;;16.80;;
60726;SDS011;46577;49.004;12.120;2022-12-17T04:38:42;41.23;;;16.57;;
60726;SDS011;46577;49.004;12.120;2022-12-17T04:41:26;48.93;;;16.90;;
60726;SDS011;46577;49.004;12.120;2022-12-17T04:44:10;39.47;;;14.33;;
60726;SDS011;46577;49.004;12.120;2022-12-17T04:46:54;46.13;;;16.00;;
60726;SDS011;46577;49.004;12.120;2022-12-17T04:49:38;34.53;;;16.40;;
60726;SDS011;46577;49.004;12.120;2022-12-17T04:52:22;41.13;;;16.30;;
60726;SDS011;46577;49.004;12.120;2022-12-17T04:55:06;45.63;;;17.23;;
60726;SDS011;46577;49.004;12.120;2022-12-17T04:57:50;35.93;;;16.10;;
60726;SDS011;46577;49.004;12.120;2022-12-17T05:00:34;39.10;;;16.10;;
60726;SDS011;46577;49.004;12.120;2022-12-17T05:03:18;46.23;;;16.50;;
60726;SDS011;46577;49.004;12.120;2022-12-17T05:06:02;40.83;;;16.57;;
60726;SDS011;46577;49.004;12.120;2022-12-17T05:08:46;39.23;;;15.33;;
60726;SDS011;46577;49.004;12.120;2022-12-17T05:11:30;40.57;;;16.30;;
60726;SDS011;46577;49.004;12.120;2022-12-17T05:14:15;40.90;;;17.80;;
60726;SDS011;46577;49.004;12.120;2022-12-17T05:16:59;38.10;;;16.90;;
60726;SDS011;46577;49.004;12.120;2022-12-17T05:19:43;34.30;;;14.40;;
60726;SDS011;46577;49.004;12.120;2022-12-17T05:22:28;34.13;;;15.80;;
60726;SDS011;46577;49.004;12.120;2022-12-17T05:25:12;35.70;;;13.93;;
60726;SDS011;46577;49.004;12.120;2022-12-17T05:27:56;41.50;;;17.63;;
60726;SDS011;46577;49.004;12.120;2022-12-17T05:30:40;38.17;;;14.50;;
60726;SDS011;46577;49.004;12.120;2022-12-17T05:33:24;38.80;;;15.87;;
60726;SDS011;46577;49.004;12.120;2022-12-17T05:36:11;40.90;;;15.27;;
60726;SDS011;46577;49.004;12.120;2022-12-17T05:38:55;35.70;;;14.30;;
60726;SDS011;46577;49.004;12.120;2022-12-17T05:41:39;32.97;;;14.70;;
60726;SDS011;46577;49.004;12.120;2022-12-17T05:44:26;41.77;;;16.60;;
60726;SDS011;46577;49.004;12.120;2022-12-17T05:47:10;38.10;;;15.87;;
60726;SDS011;46577;49.004;12.120;2022-12-17T05:49:54;36.83;;;15.57;;
60726;SDS011;46577;49.004;12.120;2022-12-17T05:52:38;40.67;;;15.50;;
60726;SDS011;46577;49.004;12.120;2022-12-17T05:55:22;36.80;;;15.13;;
60726;SDS011;46577;49.004;12.120;2022-12-17T05:58:08;34.57;;;14.70;;
60726;SDS011;46577;49.004;12.120;2022-12-17T06:01:00;40.23;;;15.77;;
60726;SDS011;46577;49.004;12.120;2022-12-17T06:03:46;45.00;;;16.67;;
60726;SDS011;46577;49.004;12.120;2022-12-17T06:06:30;35.77;;;15.30;;
60726;SDS011;46577;49.004;12.120;2022-12-17T06:09:15;35.77;;;14.87;;
60726;SDS011;46577;49.004;12.120;2022-12-17T06:11:59;35.07;;;14.43;;
60726;SDS011;46577;49.004;12.120;2022-12-17T06:14:43;39.93;;;14.80;;
60726;SDS011;46577;49.004;12.120;2022-12-17T06:17:27;36.63;;;14.70;;
60726;SDS011;46577;49.004;12.120;2022-12-17T06:20:11;37.13;;;15.77;;
60726;SDS011;46577;49.004;12.120;2022-12-17T06:22:59;43.30;;;16.93;;
60726;SDS011;46577;49.004;12.120;2022-12-17T06:25:44;34.57;;;14.80;;
60726;SDS011;46577;49.004;12.120;2022-12-17T06:28:28;36.73;;;15.10;;
60726;SDS011;46577;49.004;12.120;2022-12-17T06:31:12;39.67;;;14.90;;
60726;SDS011;46577;49.004;12.120;2022-12-17T06:33:56;37.37;;;15.03;;
60726;SDS011;46577;49.004;12.120;2022-12-17T06:36:40;41.67;;;15.27;;
60726;SDS011;46577;49.004;12.120;2022-12-17T06:39:24;39.20;;;16.60;;
60726;SDS011;46577;49.004;12.120;2022-12-17T06:42:08;39.03;;;16.60;;
60726;SDS011;46577;49.004;12.120;2022-12-17T06:44:52;32.93;;;14.83;;
60726;SDS011;46577;49.004;12.120;2022-12-17T06:47:36;38.83;;;14.57;;
60726;SDS011;46577;49.004;12.120;2022-12-17T06:50:20;35.80;;;16.00;;
60726;SDS011;46577;49.004;12.120;2022-12-17T06:53:04;36.00;;;13.97;;
60726;SDS011;46577;49.004;12.120;2022-12-17T06:55:50;45.70;;;16.23;;
60726;SDS011;46577;49.004;12.120;2022-12-17T06:58:35;36.07;;;15.30;;
60726;SDS011;46577;49.004;12.120;2022-12-17T07:01:19;45.83;;;15.57;;
60726;SDS011;46577;49.004;12.120;2022-12-17T07:04:04;33.33;;;14.07;;
60726;SDS011;46577;49.004;12.120;2022-12-17T07:06:48;35.93;;;14.97;;
60726;SDS011;46577;49.004;12.120;2022-12-17T07:09:32;41.23;;;15.50;;
60726;SDS011;46577;49.004;12.120;2022-12-17T07:12:17;40.40;;;15.50;;
60726;SDS011;46577;49.004;12.120;2022-12-17T07:15:01;41.60;;;15.87;;
60726;SDS011;46577;49.004;12.120;2022-12-17T07:17:55;42.70;;;16.03;;
60726;SDS011;46577;49.004;12.120;2022-12-17T07:20:46;38.27;;;15.20;;
60726;SDS011;46577;49.004;12.120;2022-12-17T07:23:31;29.70;;;13.90;;
60726;SDS011;46577;49.004;12.120;2022-12-17T07:26:15;38.53;;;14.27;;
60726;SDS011;46577;49.004;12.120;2022-12-17T07:28:59;37.53;;;15.37;;
60726;SDS011;46577;49.004;12.120;2022-12-17T07:31:43;30.87;;;13.93;;
60726;SDS011;46577;49.004;12.120;2022-12-17T07:34:27;37.97;;;14.03;;
60726;SDS011;46577;49.004;12.120;2022-12-17T07:37:11;39.03;;;14.80;;
60726;SDS011;46577;49.004;12.120;2022-12-17T07:39:56;37.47;;;14.70;;
60726;SDS011;46577;49.004;12.120;2022-12-17T07:42:41;34.70;;;15.40;;
60726;SDS011;46577;49.004;12.120;2022-12-17T07:45:25;44.43;;;16.83;;
60726;SDS011;46577;49.004;12.120;2022-12-17T07:48:09;32.83;;;14.70;;
60726;SDS011;46577;49.004;12.120;2022-12-17T07:50:53;41.23;;;16.10;;
60726;SDS011;46577;49.004;12.120;2022-12-17T07:53:37;34.70;;;16.03;;
60726;SDS011;46577;49.004;12.120;2022-12-17T07:56:21;51.77;;;16.50;;
60726;SDS011;46577;49.004;12.120;2022-12-17T07:59:05;40.87;;;16.07;;
60726;SDS011;46577;49.004;12.120;2022-12-17T08:01:50;37.73;;;15.80;;
60726;SDS011;46577;49.004;12.120;2022-12-17T08:04:34;43.27;;;16.90;;
60726;SDS011;46577;49.004;12.120;2022-12-17T08:07:18;59.00;;;16.80;;
60726;SDS011;46577;49.004;12.120;2022-12-17T08:10:02;41.13;;;15.93;;
60726;SDS011;46577;49.004;12.120;2022-12-17T08:12:57;37.93;;;15.57;;
60726;SDS011;46577;49.004;12.120;2022-12-17T08:15:46;40.20;;;15.17;;
60726;SDS011;46577;49.004;12.120;2022-12-17T08:18:31;33.07;;;15.20;;
60726;SDS011;46577;49.004;12.120;2022-12-17T08:21:15;44.93;;;16.10;;
60726;SDS011;46577;49.004;12.120;2022-12-17T08:23:59;36.57;;;15.60;;
60726;SDS011;46577;49.004;12.120;2022-12-17T08:26:43;34.30;;;15.13;;
60726;SDS011;46577;49.004;12.120;2022-12-17T08:29:27;34.00;;;15.20;;
60726;SDS011;46577;49.004;12.120;2022-12-17T08:32:11;36.80;;;15.47;;
60726;SDS011;46577;49.004;12.120;2022-12-17T08:34:55;36.63;;;16.30;;
60726;SDS011;46577;49.004;12.120;2022-12-17T08:37:39;36.07;;;15.00;;
60726;SDS011;46577;49.004;12.120;2022-12-17T08:40:23;32.80;;;14.80;;
60726;SDS011;46577;49.004;12.120;2022-12-17T08:43:07;37.70;;;14.93;;
60726;SDS011;46577;49.004;12.120;2022-12-17T08:45:51;34.30;;;13.80;;
60726;SDS011;46577;49.004;12.120;2022-12-17T08:48:36;36.40;;;16.27;;
60726;SDS011;46577;49.004;12.120;2022-12-17T08:51:20;35.07;;;15.63;;
60726;SDS011;46577;49.004;12.120;2022-12-17T08:54:05;33.47;;;16.87;;
60726;SDS011;46577;49.004;12.120;2022-12-17T08:56:49;38.00;;;18.20;;
60726;SDS011;46577;49.004;12.120;2022-12-17T08:59:33;38.87;;;17.73;;
60726;SDS011;46577;49.004;12.120;2022-12-17T09:02:17;39.80;;;19.47;;
60726;SDS011;46577;49.004;12.120;2022-12-17T09:05:01;37.70;;;17.93;;
60726;SDS011;46577;49.004;12.120;2022-12-17T09:07:45;42.80;;;19.10;;
60726;SDS011;46577;49.004;12.120;2022-12-17T09:10:29;34.17;;;18.70;;
60726;SDS011;46577;49.004;12.120;2022-12-17T09:13:13;40.97;;;21.13;;
60726;SDS011;46577;49.004;12.120;2022-12-17T09:15:57;36.97;;;18.87;;
60726;SDS011;46577;49.004;12.120;2022-12-17T09:18:41;35.17;;;19.43;;
60726;SDS011;46577;49.004;12.120;2022-12-17T09:21:26;43.30;;;21.70;;
60726;SDS011;46577;49.004;12.120;2022-12-17T09:24:11;33.93;;;19.40;;
60726;SDS011;46577;49.004;12.120;2022-12-17T09:26:55;37.57;;;20.23;;
60726;SDS011;46577;49.004;12.120;2022-12-17T09:29:40;38.73;;;19.70;;
60726;SDS011;46577;49.004;12.120;2022-12-17T09:32:24;39.23;;;21.30;;
60726;SDS011;46577;49.004;12.120;2022-12-17T09:35:08;36.87;;;20.20;;
60726;SDS011;46577;49.004;12.120;2022-12-17T09:37:55;35.30;;;20.63;;
60726;SDS011;46577;49.004;12.120;2022-12-17T09:40:40;33.80;;;19.77;;
60726;SDS011;46577;49.004;12.120;2022-12-17T09:43:43;32.87;;;19.70;;
60726;SDS011;46577;49.004;12.120;2022-12-17T09:49:51;38.57;;;20.50;;
60726;SDS011;46577;49.004;12.120;2022-12-17T09:52:37;34.60;;;20.90;;
60726;SDS011;46577;49.004;12.120;2022-12-17T09:55:25;33.77;;;18.90;;
60726;SDS011;46577;49.004;12.120;2022-12-17T09:58:29;37.37;;;21.47;;
60726;SDS011;46577;49.004;12.120;2022-12-17T10:01:18;33.67;;;20.07;;
60726;SDS011;46577;49.004;12.120;2022-12-17T10:04:06;36.87;;;19.27;;
60726;SDS011;46577;49.004;12.120;2022-12-17T10:06:59;30.53;;;19.33;;
60726;SDS011;46577;49.004;12.120;2022-12-17T10:09:44;35.90;;;21.70;;
60726;SDS011;46577;49.004;12.120;2022-12-17T10:12:33;38.53;;;21.83;;
60726;SDS011;46577;49.004;12.120;2022-12-17T10:15:24;34.43;;;20.93;;
60726;SDS011;46577;49.004;12.120;2022-12-17T10:18:11;37.93;;;21.13;;
60726;SDS011;46577;49.004;12.120;2022-12-17T10:21:01;32.30;;;19.90;;
60726;SDS011;46577;49.004;12.120;2022-12-17T10:23:49;34.60;;;19.93;;
60726;SDS011;46577;49.004;12.120;2022-12-17T10:26:33;33.10;;;21.57;;
60726;SDS011;46577;49.004;12.120;2022-12-17T10:29:20;31.83;;;19.80;;
60726;SDS011;46577;49.004;12.120;2022-12-17T10:34:59;32.83;;;20.30;;
60726;SDS011;46577;49.004;12.120;2022-12-17T10:37:59;37.73;;;19.70;;
60726;SDS011;46577;49.004;12.120;2022-12-17T10:40:44;39.53;;;21.43;;
60726;SDS011;46577;49.004;12.120;2022-12-17T10:43:32;37.10;;;22.23;;
60726;SDS011;46577;49.004;12.120;2022-12-17T10:46:22;35.67;;;21.60;;
60726;SDS011;46577;49.004;12.120;2022-12-17T10:49:13;36.47;;;21.83;;
60726;SDS011;46577;49.004;12.120;2022-12-17T10:52:00;34.57;;;20.20;;
60726;SDS011;46577;49.004;12.120;2022-12-17T10:54:53;36.63;;;21.40;;
60726;SDS011;46577;49.004;12.120;2022-12-17T10:57:40;31.80;;;18.83;;
60726;SDS011;46577;49.004;12.120;2022-12-17T11:00:26;37.93;;;22.43;;
60726;SDS011;46577;49.004;12.120;2022-12-17T11:06:10;31.73;;;20.50;;
60726;SDS011;46577;49.004;12.120;2022-12-17T11:08:57;32.80;;;20.00;;
60726;SDS011;46577;49.004;12.120;2022-12-17T11:11:44;38.47;;;22.10;;
60726;SDS011;46577;49.004;12.120;2022-12-17T11:14:28;34.07;;;20.07;;
60726;SDS011;46577;49.004;12.120;2022-12-17T11:17:16;34.93;;;19.63;;
60726;SDS011;46577;49.004;12.120;2022-12-17T11:20:05;38.87;;;21.90;;
60726;SDS011;46577;49.004;12.120;2022-12-17T11:22:57;34.40;;;21.47;;
60726;SDS011;46577;49.004;12.120;2022-12-17T11:28:44;34.60;;;20.07;;
60726;SDS011;46577;49.004;12.120;2022-12-17T11:40:57;35.10;;;17.30;;
60726;SDS011;46577;49.004;12.120;2022-12-17T11:47:21;32.30;;;18.07;;
60726;SDS011;46577;49.004;12.120;2022-12-17T11:50:23;35.13;;;18.87;;
60726;SDS011;46577;49.004;12.120;2022-12-17T11:56:08;30.93;;;18.47;;
60726;SDS011;46577;49.004;12.120;2022-12-17T11:59:00;32.43;;;18.30;;
60726;SDS011;46577;49.004;12.120;2022-12-17T12:02:03;28.60;;;17.43;;
60726;SDS011;46577;49.004;12.120;2022-12-17T12:05:11;33.60;;;17.30;;
60726;SDS011;46577;49.004;12.120;2022-12-17T12:08:08;31.73;;;17.53;;
60726;SDS011;46577;49.004;12.120;2022-12-17T12:11:10;35.20;;;18.40;;
60726;SDS011;46577;49.004;12.120;2022-12-17T12:20:02;25.40;;;15.40;;
60726;SDS011;46577;49.004;12.120;2022-12-17T12:25:56;32.00;;;17.53;;
60726;SDS011;46577;49.004;12.120;2022-12-17T12:32:01;29.37;;;17.10;;
60726;SDS011;46577;49.004;12.120;2022-12-17T12:34:56;34.60;;;18.50;;
60726;SDS011;46577;49.004;12.120;2022-12-17T12:37:42;32.17;;;18.53;;
60726;SDS011;46577;49.004;12.120;2022-12-17T12:40:31;26.57;;;15.63;;
60726;SDS011;46577;49.004;12.120;2022-12-17T12:43:34;31.53;;;16.40;;
60726;SDS011;46577;49.004;12.120;2022-12-17T12:46:31;32.77;;;17.10;;
60726;SDS011;46577;49.004;12.120;2022-12-17T12:52:27;31.70;;;17.43;;
60726;SDS011;46577;49.004;12.120;2022-12-17T12:55:12;29.40;;;16.23;;
60726;SDS011;46577;49.004;12.120;2022-12-17T12:58:22;32.20;;;17.03;;
60726;SDS011;46577;49.004;12.120;2022-12-17T13:01:06;35.77;;;17.50;;
60726;SDS011;46577;49.004;12.120;2022-12-17T13:03:54;29.70;;;15.53;;
60726;SDS011;46577;49.004;12.120;2022-12-17T13:11:53;30.33;;;16.20;;
60726;SDS011;46577;49.004;12.120;2022-12-17T13:14:33;31.60;;;15.07;;
60726;SDS011;46577;49.004;12.120;2022-12-17T13:19:42;39.63;;;17.83;;
60726;SDS011;46577;49.004;12.120;2022-12-17T13:24:52;34.90;;;17.27;;
60726;SDS011;46577;49.004;12.120;2022-12-17T13:32:45;39.30;;;17.50;;
60726;SDS011;46577;49.004;12.120;2022-12-17T13:41:18;31.70;;;14.80;;
60726;SDS011;46577;49.004;12.120;2022-12-17T13:43:52;30.73;;;14.30;;
60726;SDS011;46577;49.004;12.120;2022-12-17T13:48:57;32.30;;;15.73;;
60726;SDS011;46577;49.004;12.120;2022-12-17T13:51:26;34.97;;;14.27;;
60726;SDS011;46577;49.004;12.120;2022-12-17T13:53:55;38.23;;;15.70;;
60726;SDS011;46577;49.004;12.120;2022-12-17T13:56:26;33.30;;;15.20;;
60726;SDS011;46577;49.004;12.120;2022-12-17T13:58:54;28.60;;;14.50;;
60726;SDS011;46577;49.004;12.120;2022-12-17T14:01:21;33.20;;;15.90;;
60726;SDS011;46577;49.004;12.120;2022-12-17T14:03:51;28.53;;;13.23;;
60726;SDS011;46577;49.004;12.120;2022-12-17T14:06:21;25.73;;;14.00;;
60726;SDS011;46577;49.004;12.120;2022-12-17T14:08:50;31.87;;;12.90;;
60726;SDS011;46577;49.004;12.120;2022-12-17T14:11:18;32.70;;;13.93;;
60726;SDS011;46577;49.004;12.120;2022-12-17T14:14:02;32.03;;;12.57;;
60726;SDS011;46577;49.004;12.120;2022-12-17T14:16:32;37.70;;;14.53;;
60726;SDS011;46577;49.004;12.120;2022-12-17T14:18:58;31.90;;;14.50;;
60726;SDS011;46577;49.004;12.120;2022-12-17T14:21:25;37.17;;;13.90;;
60726;SDS011;46577;49.004;12.120;2022-12-17T14:23:51;30.30;;;15.40;;
60726;SDS011;46577;49.004;12.120;2022-12-17T14:26:18;32.47;;;13.40;;
60726;SDS011;46577;49.004;12.120;2022-12-17T14:33:39;26.73;;;12.37;;
60726;SDS011;46577;49.004;12.120;2022-12-17T14:36:21;26.67;;;12.60;;
60726;SDS011;46577;49.004;12.120;2022-12-17T14:38:54;26.30;;;13.37;;
60726;SDS011;46577;49.004;12.120;2022-12-17T14:41:24;33.07;;;15.53;;
60726;SDS011;46577;49.004;12.120;2022-12-17T14:44:18;33.90;;;14.40;;
60726;SDS011;46577;49.004;12.120;2022-12-17T14:46:45;35.57;;;14.40;;
60726;SDS011;46577;49.004;12.120;2022-12-17T14:49:15;41.57;;;15.63;;
60726;SDS011;46577;49.004;12.120;2022-12-17T14:51:45;42.40;;;15.03;;
60726;SDS011;46577;49.004;12.120;2022-12-17T14:56:53;34.47;;;14.50;;
60726;SDS011;46577;49.004;12.120;2022-12-17T14:59:30;35.83;;;15.77;;
60726;SDS011;46577;49.004;12.120;2022-12-17T15:02:04;32.80;;;15.70;;
60726;SDS011;46577;49.004;12.120;2022-12-17T15:04:44;35.97;;;15.10;;
60726;SDS011;46577;49.004;12.120;2022-12-17T15:07:12;40.73;;;17.57;;
60726;SDS011;46577;49.004;12.120;2022-12-17T15:09:39;40.70;;;15.03;;
60726;SDS011;46577;49.004;12.120;2022-12-17T15:12:06;36.37;;;16.37;;
60726;SDS011;46577;49.004;12.120;2022-12-17T15:14:31;37.80;;;15.57;;
60726;SDS011;46577;49.004;12.120;2022-12-17T15:16:57;40.53;;;16.70;;
60726;SDS011;46577;49.004;12.120;2022-12-17T15:19:23;39.30;;;17.30;;
60726;SDS011;46577;49.004;12.120;2022-12-17T15:21:49;35.70;;;14.23;;
60726;SDS011;46577;49.004;12.120;2022-12-17T15:24:16;37.27;;;15.70;;
60726;SDS011;46577;49.004;12.120;2022-12-17T15:26:44;38.83;;;15.83;;
60726;SDS011;46577;49.004;12.120;2022-12-17T15:29:10;32.47;;;14.67;;
60726;SDS011;46577;49.004;12.120;2022-12-17T15:31:36;35.90;;;16.43;;
60726;SDS011;46577;49.004;12.120;2022-12-17T15:34:01;49.47;;;18.03;;
60726;SDS011;46577;49.004;12.120;2022-12-17T15:36:28;40.30;;;17.87;;
60726;SDS011;46577;49.004;12.120;2022-12-17T15:38:55;43.23;;;15.73;;
60726;SDS011;46577;49.004;12.120;2022-12-17T15:41:21;36.37;;;17.10;;
60726;SDS011;46577;49.004;12.120;2022-12-17T15:44:05;38.83;;;16.60;;
60726;SDS011;46577;49.004;12.120;2022-12-17T15:46:31;41.00;;;15.57;;
60726;SDS011;46577;49.004;12.120;2022-12-17T15:48:57;44.40;;;17.47;;
60726;SDS011;46577;49.004;12.120;2022-12-17T15:51:22;42.87;;;17.17;;
60726;SDS011;46577;49.004;12.120;2022-12-17T15:53:48;48.00;;;19.57;;
60726;SDS011;46577;49.004;12.120;2022-12-17T15:56:25;44.57;;;19.00;;
60726;SDS011;46577;49.004;12.120;2022-12-17T15:58:51;50.03;;;17.83;;
60726;SDS011;46577;49.004;12.120;2022-12-17T16:01:20;36.77;;;16.10;;
60726;SDS011;46577;49.004;12.120;2022-12-17T16:03:45;41.23;;;16.90;;
60726;SDS011;46577;49.004;12.120;2022-12-17T16:06:11;43.10;;;17.10;;
60726;SDS011;46577;49.004;12.120;2022-12-17T16:08:37;41.47;;;15.57;;
60726;SDS011;46577;49.004;12.120;2022-12-17T16:11:10;49.00;;;19.70;;
60726;SDS011;46577;49.004;12.120;2022-12-17T16:13:37;40.70;;;17.90;;
60726;SDS011;46577;49.004;12.120;2022-12-17T16:16:04;40.93;;;16.80;;
60726;SDS011;46577;49.004;12.120;2022-12-17T16:18:30;46.77;;;18.77;;
60726;SDS011;46577;49.004;12.120;2022-12-17T16:21:02;46.60;;;17.17;;
60726;SDS011;46577;49.004;12.120;2022-12-17T16:23:29;39.57;;;17.47;;
60726;SDS011;46577;49.004;12.120;2022-12-17T16:25:59;38.87;;;17.07;;
60726;SDS011;46577;49.004;12.120;2022-12-17T16:28:26;49.63;;;18.40;;
60726;SDS011;46577;49.004;12.120;2022-12-17T16:30:59;43.33;;;19.07;;
60726;SDS011;46577;49.004;12.120;2022-12-17T16:33:26;43.03;;;17.17;;
60726;SDS011;46577;49.004;12.120;2022-12-17T16:35:55;45.33;;;18.93;;
60726;SDS011;46577;49.004;12.120;2022-12-17T16:38:21;46.73;;;18.60;;
60726;SDS011;46577;49.004;12.120;2022-12-17T16:40:46;38.53;;;17.10;;
60726;SDS011;46577;49.004;12.120;2022-12-17T16:43:12;48.80;;;18.67;;
60726;SDS011;46577;49.004;12.120;2022-12-17T16:45:46;45.20;;;19.33;;
60726;SDS011;46577;49.004;12.120;2022-12-17T16:48:13;46.47;;;18.17;;
60726;SDS011;46577;49.004;12.120;2022-12-17T16:50:41;50.83;;;20.00;;
60726;SDS011;46577;49.004;12.120;2022-12-17T16:53:07;44.27;;;19.37;;
60726;SDS011;46577;49.004;12.120;2022-12-17T16:55:32;41.57;;;19.40;;
60726;SDS011;46577;49.004;12.120;2022-12-17T16:58:04;43.80;;;18.70;;